createdAt,value
2018-04-08T00:00:17.673Z,100459.03
2018-04-08T00:02:46.693Z,100452.75
2018-04-08T00:05:15.744Z,100451.90
2018-04-08T00:07:44.999Z,100449.94
2018-04-08T00:10:14.028Z,100447.23
2018-04-08T00:12:43.367Z,100451.38
2018-04-08T00:15:12.611Z,100450.11
2018-04-08T00:17:41.701Z,100450.06
2018-04-08T00:20:10.982Z,100450.96
2018-04-08T00:22:39.969Z,100448.61
2018-04-08T00:25:09.232Z,100449.99
2018-04-08T00:27:38.552Z,100442.84
2018-04-08T00:30:07.793Z,100448.11
2018-04-08T00:32:37.063Z,100438.78
2018-04-08T00:35:06.401Z,100438.82
2018-04-08T00:37:35.852Z,100435.44
2018-04-08T00:40:04.967Z,100436.66
2018-04-08T00:42:35.295Z,100433.95
2018-04-08T00:45:04.426Z,100428.60
2018-04-08T00:47:33.459Z,100422.13
2018-04-08T00:50:02.577Z,100433.91
2018-04-08T00:52:31.584Z,100429.16
2018-04-08T00:55:00.600Z,100427.78
2018-04-08T00:57:31.415Z,100433.63
2018-04-08T01:00:02.127Z,100427.56
2018-04-08T01:02:32.910Z,100432.87
2018-04-08T01:05:03.796Z,100425.20
2018-04-08T01:07:34.868Z,100424.44
2018-04-08T01:10:04.718Z,100421.95
2018-04-08T01:12:36.323Z,100430.59
2018-04-08T01:15:06.945Z,100437.43
2018-04-08T01:17:37.952Z,100432.50
2018-04-08T01:20:08.809Z,100433.95
2018-04-08T01:22:39.867Z,100432.53
2018-04-08T01:25:10.985Z,100427.44
2018-04-08T01:27:41.850Z,100427.73
2018-04-08T01:30:13.274Z,100425.11
2018-04-08T01:32:43.929Z,100426.48
2018-04-08T01:35:14.809Z,100425.73
2018-04-08T01:37:45.843Z,100419.97
2018-04-08T01:40:17.445Z,100407.89
2018-04-08T01:42:48.327Z,100412.02
2018-04-08T01:45:18.892Z,100415.38
2018-04-08T01:47:50.663Z,100412.66
2018-04-08T01:50:20.321Z,100406.27
2018-04-08T01:52:51.884Z,100410.30
2018-04-08T01:55:21.749Z,100407.24
2018-04-08T01:57:52.474Z,100405.61
2018-04-08T02:00:23.062Z,100404.20
2018-04-08T02:02:54.602Z,100403.14
2018-04-08T02:05:25.327Z,100404.31
2018-04-08T02:07:55.735Z,100399.41
2018-04-08T02:10:26.423Z,100389.84
2018-04-08T02:12:57.299Z,100398.06
2018-04-08T02:15:28.008Z,100393.70
2018-04-08T02:17:59.959Z,100393.66
2018-04-08T02:20:30.487Z,100407.89
2018-04-08T02:22:59.852Z,100411.41
2018-04-08T02:25:30.699Z,100407.06
2018-04-08T02:28:01.511Z,100408.83
2018-04-08T02:30:32.147Z,100411.27
2018-04-08T02:33:03.166Z,100403.75
2018-04-08T02:35:34.742Z,100403.02
2018-04-08T02:38:05.453Z,100408.66
2018-04-08T02:40:36.328Z,100407.77
2018-04-08T02:43:07.768Z,100403.36
2018-04-08T02:45:39.459Z,100417.42
2018-04-08T02:48:10.329Z,100405.20
2018-04-08T02:50:40.133Z,100404.61
2018-04-08T02:53:10.879Z,100413.45
2018-04-08T02:55:40.377Z,100428.46
2018-04-08T02:58:11.035Z,100418.70
2018-04-08T03:00:42.588Z,100421.41
2018-04-08T03:03:13.454Z,100421.36
2018-04-08T03:05:44.193Z,100416.06
2018-04-08T03:08:15.962Z,100420.69
2018-04-08T03:10:46.824Z,100419.31
2018-04-08T03:13:16.806Z,100418.41
2018-04-08T03:15:47.862Z,100418.24
2018-04-08T03:18:18.743Z,100408.54
2018-04-08T03:20:52.721Z,100413.20
2018-04-08T03:23:22.053Z,100410.20
2018-04-08T03:25:52.618Z,100410.37
2018-04-08T03:28:23.280Z,100412.39
2018-04-08T03:30:52.986Z,100419.13
2018-04-08T03:33:24.087Z,100428.23
2018-04-08T03:35:59.441Z,100429.59
2018-04-08T03:38:28.757Z,100427.52
2018-04-08T03:40:58.199Z,100420.58
2018-04-08T03:43:27.761Z,100429.01
2018-04-08T03:45:58.168Z,100428.64
2018-04-08T03:48:29.284Z,100425.24
2018-04-08T03:51:00.311Z,100426.35
2018-04-08T03:53:30.905Z,100431.66
2018-04-08T03:56:02.127Z,100421.72
2018-04-08T03:58:33.140Z,100427.70
2018-04-08T04:01:03.815Z,100426.59
2018-04-08T04:03:34.864Z,100425.67
2018-04-08T04:06:05.809Z,100420.20
2018-04-08T04:08:36.968Z,100427.58
2018-04-08T04:11:06.711Z,100426.05
2018-04-08T04:13:38.403Z,100424.70
2018-04-08T04:16:08.963Z,100426.95
2018-04-08T04:18:50.319Z,100418.41
2018-04-08T04:21:30.920Z,100427.72
2018-04-08T04:24:10.800Z,100419.23
2018-04-08T04:26:39.953Z,100415.50
2018-04-08T04:29:08.735Z,100413.24
2018-04-08T04:31:37.564Z,100420.73
2018-04-08T04:34:06.752Z,100418.59
2018-04-08T04:36:35.622Z,100422.77
2018-04-08T04:39:04.275Z,100418.95
2018-04-08T04:41:33.728Z,100417.95
2018-04-08T04:44:03.047Z,100415.58
2018-04-08T04:46:32.271Z,100419.19
2018-04-08T04:49:01.575Z,100421.20
2018-04-08T04:51:31.080Z,100421.75
2018-04-08T04:54:00.319Z,100421.75
2018-04-08T04:56:29.455Z,100419.61
2018-04-08T04:58:58.938Z,100424.48
2018-04-08T05:01:28.030Z,100420.00
2018-04-08T05:03:57.167Z,100418.00
2018-04-08T05:06:27.183Z,100423.09
2018-04-08T05:08:58.031Z,100418.94
2018-04-08T05:11:28.787Z,100416.31
2018-04-08T05:14:00.325Z,100421.55
2018-04-08T05:16:30.903Z,100413.92
2018-04-08T05:19:01.790Z,100420.58
2018-04-08T05:21:32.884Z,100421.98
2018-04-08T05:24:03.796Z,100426.93
2018-04-08T05:26:35.410Z,100418.67
2018-04-08T05:29:06.177Z,100422.06
2018-04-08T05:31:37.375Z,100418.02
2018-04-08T05:34:08.145Z,100418.54
2018-04-08T05:36:39.125Z,100411.22
2018-04-08T05:39:10.784Z,100413.20
2018-04-08T05:41:41.820Z,100413.80
2018-04-08T05:44:12.386Z,100414.19
2018-04-08T05:46:42.220Z,100400.61
2018-04-08T05:49:13.033Z,100404.55
2018-04-08T05:51:44.139Z,100400.64
2018-04-08T05:54:15.592Z,100398.16
2018-04-08T05:56:46.528Z,100402.17
2018-04-08T05:59:16.033Z,100399.98
2018-04-08T06:01:46.821Z,100403.24
2018-04-08T06:04:17.804Z,100405.86
2018-04-08T06:06:48.185Z,100397.09
2018-04-08T06:09:18.920Z,100404.39
2018-04-08T06:11:48.833Z,100399.89
2018-04-08T06:14:20.404Z,100401.34
2018-04-08T06:16:52.377Z,100406.61
2018-04-08T06:19:23.823Z,100395.70
2018-04-08T06:21:53.367Z,100401.53
2018-04-08T06:24:24.411Z,100400.02
2018-04-08T06:26:55.965Z,100393.16
2018-04-08T06:29:26.667Z,100389.55
2018-04-08T06:31:57.493Z,100392.08
2018-04-08T06:34:27.953Z,100396.29
2018-04-08T06:36:58.741Z,100389.52
2018-04-08T06:39:29.595Z,100392.35
2018-04-08T06:42:00.145Z,100382.48
2018-04-08T06:44:31.165Z,100386.82
2018-04-08T06:47:06.996Z,100380.59
2018-04-08T06:49:35.816Z,100384.69
2018-04-08T06:52:05.498Z,100381.06
2018-04-08T06:54:35.024Z,100370.56
2018-04-08T06:57:09.113Z,100375.48
2018-04-08T06:59:38.481Z,100371.20
2018-04-08T07:02:09.086Z,100374.12
2018-04-08T07:04:40.547Z,100373.26
2018-04-08T07:07:09.540Z,100367.41
2018-04-08T07:09:41.029Z,100373.03
2018-04-08T07:12:09.837Z,100369.15
2018-04-08T07:14:40.356Z,100357.98
2018-04-08T07:17:11.176Z,100357.67
2018-04-08T07:19:42.000Z,100355.95
2018-04-08T07:22:12.632Z,100346.33
2018-04-08T07:24:43.320Z,100339.55
2018-04-08T07:27:15.321Z,100330.06
2018-04-08T07:29:44.191Z,100339.71
2018-04-08T07:32:14.915Z,100346.84
2018-04-08T07:34:46.688Z,100322.07
2018-04-08T07:37:17.393Z,100331.67
2018-04-08T07:39:48.180Z,100330.31
2018-04-08T07:42:17.610Z,100319.92
2018-04-08T07:44:47.034Z,100326.52
2018-04-08T07:47:17.509Z,100330.72
2018-04-08T07:49:48.462Z,100319.75
2018-04-08T07:52:17.506Z,100316.73
2018-04-08T07:54:46.647Z,100310.41
2018-04-08T07:57:15.763Z,100299.77
2018-04-08T07:59:44.819Z,100301.31
2018-04-08T08:02:14.072Z,100298.88
2018-04-08T08:04:43.027Z,100298.44
2018-04-08T08:07:12.103Z,100302.27
2018-04-08T08:09:41.388Z,100296.68
2018-04-08T08:12:10.307Z,100302.92
2018-04-08T08:14:39.538Z,100297.73
2018-04-08T08:17:08.855Z,100299.48
2018-04-08T08:19:37.869Z,100290.36
2018-04-08T08:22:07.083Z,100300.27
2018-04-08T08:24:36.127Z,100287.94
2018-04-08T08:27:05.142Z,100288.71
2018-04-08T08:29:34.258Z,100286.11
2018-04-08T08:32:03.222Z,100282.95
2018-04-08T08:34:32.344Z,100272.13
2018-04-08T08:37:01.550Z,100292.69
2018-04-08T08:39:30.621Z,100292.27
2018-04-08T08:42:00.376Z,100284.23
2018-04-08T08:44:29.910Z,100288.19
2018-04-08T08:46:59.057Z,100266.11
2018-04-08T08:49:28.080Z,100268.64
2018-04-08T08:51:57.306Z,100272.22
2018-04-08T08:54:26.491Z,100260.77
2018-04-08T08:56:55.508Z,100255.10
2018-04-08T08:59:24.600Z,100253.66
2018-04-08T09:01:53.661Z,100265.58
2018-04-08T09:04:22.596Z,100256.48
2018-04-08T09:06:51.902Z,100263.09
2018-04-08T09:09:21.043Z,100256.52
2018-04-08T09:11:49.988Z,100263.20
2018-04-08T09:14:19.184Z,100260.02
2018-04-08T09:16:48.150Z,100263.86
2018-04-08T09:19:19.596Z,100250.43
2018-04-08T09:21:51.109Z,100248.18
2018-04-08T09:24:20.511Z,100257.71
2018-04-08T09:26:49.691Z,100239.81
2018-04-08T09:29:18.726Z,100241.47
2018-04-08T09:31:47.851Z,100234.84
2018-04-08T09:34:16.845Z,100229.72
2018-04-08T09:36:46.165Z,100230.52
2018-04-08T09:39:15.567Z,100218.53
2018-04-08T09:41:44.762Z,100210.48
2018-04-08T09:44:13.968Z,100174.46
2018-04-08T09:46:43.247Z,100196.48
2018-04-08T09:49:12.201Z,100201.42
2018-04-08T09:51:41.180Z,100190.00
2018-04-08T09:54:20.060Z,100176.13
2018-04-08T11:00:34.118Z,100082.05
2018-04-08T11:03:03.171Z,100091.98
2018-04-08T11:05:32.168Z,100091.13
2018-04-08T11:08:01.264Z,100086.45
2018-04-08T11:10:30.538Z,100085.28
2018-04-08T11:12:59.504Z,100076.98
2018-04-08T11:15:28.866Z,100070.78
2018-04-08T11:17:58.106Z,100054.57
2018-04-08T11:20:26.908Z,100052.52
2018-04-08T11:22:55.984Z,100064.13
2018-04-08T11:25:24.802Z,100036.69
2018-04-08T11:27:54.022Z,100039.42
2018-04-08T11:30:23.063Z,100042.23
2018-04-08T11:32:52.671Z,100021.49
2018-04-08T11:35:21.962Z,100026.52
2018-04-08T11:37:51.063Z,100020.55
2018-04-08T11:40:20.020Z,100014.92
2018-04-08T11:42:48.993Z,100010.31
2018-04-08T11:45:17.925Z,100009.89
2018-04-08T11:47:46.902Z,99996.34
2018-04-08T11:50:15.707Z,100001.35
2018-04-08T11:52:44.801Z,99991.75
2018-04-08T11:55:13.767Z,99983.78
2018-04-08T11:57:42.814Z,99976.47
2018-04-08T12:00:13.835Z,99964.16
2018-04-08T12:02:42.738Z,99962.08
2018-04-08T12:05:12.063Z,99945.47
2018-04-08T12:07:41.410Z,99935.22
2018-04-08T12:10:10.486Z,99936.34
2018-04-08T12:12:39.692Z,99938.47
2018-04-08T12:15:08.777Z,99925.95
2018-04-08T12:17:37.743Z,99928.82
2018-04-08T12:20:06.992Z,99910.33
2018-04-08T12:22:35.853Z,99915.30
2018-04-08T12:25:06.112Z,99906.42
2018-04-08T12:27:34.911Z,99910.28
2018-04-08T12:30:03.779Z,99898.77
2018-04-08T12:32:32.659Z,99902.39
2018-04-08T12:35:01.655Z,99899.88
2018-04-08T12:37:30.632Z,99893.13
2018-04-08T12:39:59.675Z,99886.10
2018-04-08T12:42:28.676Z,99876.44
2018-04-08T12:44:57.875Z,99891.82
2018-04-08T12:47:26.857Z,99885.55
2018-04-08T12:49:55.641Z,99861.59
2018-04-08T12:52:24.680Z,99869.95
2018-04-08T12:54:54.038Z,99861.10
2018-04-08T12:57:23.228Z,99861.73
2018-04-08T12:59:52.533Z,99863.13
2018-04-08T13:02:21.588Z,99852.78
2018-04-08T13:04:50.555Z,99860.41
2018-04-08T13:07:19.957Z,99845.05
2018-04-08T13:09:48.975Z,99843.51
2018-04-08T13:12:17.772Z,99837.22
2018-04-08T13:14:47.029Z,99843.99
2018-04-08T13:17:16.183Z,99841.86
2018-04-08T13:19:45.268Z,99829.38
2018-04-08T13:22:14.607Z,99823.17
2018-04-08T13:24:43.905Z,99815.73
2018-04-08T13:27:12.908Z,99798.72
2018-04-08T13:29:42.074Z,99791.91
2018-04-08T13:32:11.047Z,99806.47
2018-04-08T13:34:40.351Z,99799.59
2018-04-08T13:37:09.415Z,99797.27
2018-04-08T13:39:38.805Z,99793.15
2018-04-08T13:42:08.038Z,99780.55
2018-04-08T13:44:37.530Z,99770.69
2018-04-08T13:47:06.592Z,99767.27
2018-04-08T13:49:35.590Z,99768.28
2018-04-08T13:52:04.664Z,99767.45
2018-04-08T13:54:35.302Z,99759.30
